Terminal Aerodrome Forecast
Issued by NWS

Home | Current Version | Previous Version | Text Only | Print | Product List | Glossary On
Versions: 1 2 3 4 5 6 7 8 9 10 11 12 13 14
000
FTUS41 KBTV 211100
TAFMSS
TAF
KMSS 211121Z 2112/2212 21012G22KT P6SM BKN060 BKN080
     FM211900 19010KT 6SM -SHRA BR OVC040
     FM212100 23006KT 6SM -SHRA BR OVC035
     FM220000 26006KT 5SM BR OVC015
     FM220300 28010KT 3SM BR OVC012=

USA.gov is the U.S. government's official web portal to all federal, state and local government web resources and services.